Time;durP1;ratioP1;P1;durP2;ratioP2;P2;SDS_P1;SDS_P2;PMS_P1;PMS_P2;Temp;Humidity;BMP_temperature;BMP_pressure;BME280_temperature;BME280_humidity;BME280_pressure;Samples;Min_cycle;Max_cycle;Signal;HPM_P1;HPM_P2
2021/01/16 00:00:55;;;;;;;;;;;;;;;4.38;37.82;102258.84;5985354;23;97139;-77
2021/01/16 00:03:21;;;;;;;;;;;;;;;4.13;37.82;102261.09;5984442;23;97748;-79
2021/01/16 00:05:47;;;;;;;;;;;;;;;4.26;37.94;102268.28;5979482;23;97134;-77
2021/01/16 00:08:14;;;;;;;;;;;;;;;3.83;38.32;102256.25;5984234;23;96826;-82
2021/01/16 00:10:44;;;;;;;;;;;;;;;3.81;38.50;102260.56;5994211;23;98258;-83
2021/01/16 00:13:14;;;;;;;;;;;;;;;4.08;37.59;102265.34;5993467;23;99331;-81
2021/01/16 00:15:40;;;;;;;;;;;;;;;4.43;37.44;102261.53;5991522;23;96514;-81
2021/01/16 00:18:07;;;;;;;;;;;;;;;4.35;38.07;102261.41;5993112;23;95902;-81
2021/01/16 00:20:33;;;;;;;;;;;;;;;4.00;37.88;102265.28;5992439;23;100497;-79
2021/01/16 00:23:01;;;;;;;;;;;;;;;3.61;39.29;102268.97;5992941;23;99203;-80
2021/01/16 00:25:28;;;;;;;;;;;;;;;4.26;38.31;102260.44;5991396;23;96624;-82
2021/01/16 00:27:55;;;;;;;;;;;;;;;4.05;38.03;102260.09;5986005;23;96707;-79
2021/01/16 00:30:22;;;;;;;;;;;;;;;3.17;40.13;102262.06;5974360;23;97863;-78
2021/01/16 00:32:48;;;;;;;;;;;;;;;3.58;39.27;102260.22;5970700;23;99200;-79
2021/01/16 00:35:15;;;;;;;;;;;;;;;3.78;39.44;102257.94;5975710;23;96719;-79
2021/01/16 00:37:42;;;;;;;;;;;;;;;2.75;40.82;102262.13;5979674;23;97257;-81
2021/01/16 00:40:09;;;;;;;;;;;;;;;3.68;38.93;102264.72;5975184;23;97953;-79
2021/01/16 00:42:38;;;;;;;;;;;;;;;3.46;39.46;102262.63;5980316;23;102068;-79
2021/01/16 00:45:06;;;;;;;;;;;;;;;3.90;38.84;102255.50;5977757;23;96821;-79
2021/01/16 00:47:33;;;;;;;;;;;;;;;3.18;39.27;102259.50;5974965;23;96923;-79
2021/01/16 00:49:59;;;;;;;;;;;;;;;4.10;37.91;102250.56;5978442;23;99134;-80
2021/01/16 00:52:25;;;;;;;;;;;;;;;3.59;39.56;102254.13;5977140;23;99310;-79
2021/01/16 00:54:50;;;;;;;;;;;;;;;3.32;39.32;102253.66;5975170;23;96794;-79
2021/01/16 00:57:16;;;;;;;;;;;;;;;3.62;39.00;102259.41;5973473;23;96912;-80
2021/01/16 00:59:42;;;;;;;;;;;;;;;3.74;39.19;102259.59;5980129;23;99721;-80
2021/01/16 01:02:09;;;;;;;;;;;;;;;3.81;38.81;102255.34;5987673;23;98275;-78
2021/01/16 01:04:34;;;;;;;;;;;;;;;4.12;38.17;102256.72;5984736;23;96617;-79
2021/01/16 01:07:01;;;;;;;;;;;;;;;4.08;38.00;102252.28;5979071;23;96879;-79
2021/01/16 01:09:32;;;;;;;;;;;;;;;4.29;37.87;102245.63;5976147;23;99096;-79
2021/01/16 01:11:58;;;;;;;;;;;;;;;4.47;37.49;102245.00;5980423;23;97706;-79
2021/01/16 01:14:23;;;;;;;;;;;;;;;4.54;37.87;102245.94;5973902;23;96741;-79
2021/01/16 01:16:49;;;;;;;;;;;;;;;4.34;38.33;102249.19;5972590;23;96795;-79
2021/01/16 01:19:16;;;;;;;;;;;;;;;4.21;37.63;102246.38;5973034;23;97896;-79
2021/01/16 01:21:41;;;;;;;;;;;;;;;4.41;38.19;102251.03;5972937;23;97562;-78
2021/01/16 01:24:08;;;;;;;;;;;;;;;4.25;38.21;102253.44;5973028;23;96689;-78
2021/01/16 01:26:36;;;;;;;;;;;;;;;4.01;38.37;102259.16;5973007;23;97039;-78
2021/01/16 01:29:02;;;;;;;;;;;;;;;4.38;37.95;102255.34;5970470;23;99248;-78
2021/01/16 01:31:28;;;;;;;;;;;;;;;4.11;38.51;102253.22;5974202;23;100001;-78
2021/01/16 01:33:54;;;;;;;;;;;;;;;4.20;38.43;102257.72;5976887;23;97156;-78
2021/01/16 01:36:21;;;;;;;;;;;;;;;4.24;38.36;102249.94;5978761;23;97112;-79
2021/01/16 01:38:47;;;;;;;;;;;;;;;4.05;38.35;102249.63;5982466;23;98938;-78
2021/01/16 01:41:13;;;;;;;;;;;;;;;4.25;38.42;102251.69;5975971;23;99177;-78
2021/01/16 01:43:38;;;;;;;;;;;;;;;4.13;38.71;102261.09;5973281;23;96707;-78
2021/01/16 01:46:04;;;;;;;;;;;;;;;4.16;38.69;102259.41;5970892;23;97043;-79
2021/01/16 01:48:31;;;;;;;;;;;;;;;4.14;38.97;102249.75;5971032;23;97167;-79
2021/01/16 01:50:57;;;;;;;;;;;;;;;3.87;39.06;102238.03;5971434;23;98911;-79
2021/01/16 01:53:24;;;;;;;;;;;;;;;3.98;39.10;102248.66;5971404;23;96827;-79
2021/01/16 01:55:53;;;;;;;;;;;;;;;3.68;39.46;102242.94;5972120;23;97041;-78
2021/01/16 01:58:21;;;;;;;;;;;;;;;3.68;40.02;102246.44;5974679;23;98854;-79
2021/01/16 02:00:49;;;;;;;;;;;;;;;4.10;39.10;102242.72;5986859;23;97794;-79
2021/01/16 02:03:15;;;;;;;;;;;;;;;3.68;39.87;102240.31;5972034;23;96875;-79
2021/01/16 02:05:41;;;;;;;;;;;;;;;3.77;40.12;102240.47;5969894;23;96863;-79
2021/01/16 02:08:07;;;;;;;;;;;;;;;3.94;39.55;102241.59;5970396;23;98901;-78
2021/01/16 02:10:33;;;;;;;;;;;;;;;3.65;40.38;102241.16;5970888;23;98833;-78
2021/01/16 02:12:59;;;;;;;;;;;;;;;3.06;40.82;102237.50;5971374;23;96813;-79
2021/01/16 02:15:28;;;;;;;;;;;;;;;3.61;40.66;102234.09;5972492;23;96791;-79
2021/01/16 02:18:01;;;;;;;;;;;;;;;3.41;41.10;102238.16;5972781;23;99602;-79
2021/01/16 02:20:27;;;;;;;;;;;;;;;3.41;41.42;102230.31;5973112;23;98918;-79
2021/01/16 02:23:17;;;;;;;;;;;;;;;3.13;41.51;102232.44;5973195;23;97079;-81
2021/01/16 02:25:56;;;;;;;;;;;;;;;3.03;42.30;102221.75;5950178;23;96680;-79
2021/01/16 02:28:24;;;;;;;;;;;;;;;2.74;43.13;102222.09;5971207;23;98890;-78
2021/01/16 02:30:51;;;;;;;;;;;;;;;3.14;42.36;102223.75;5971367;23;98910;-79
2021/01/16 02:33:18;;;;;;;;;;;;;;;3.41;41.85;102218.13;5970346;23;97246;-79
2021/01/16 02:35:51;;;;;;;;;;;;;;;3.69;41.25;102214.22;5970524;23;96926;-79
2021/01/16 02:38:22;;;;;;;;;;;;;;;3.81;40.86;102221.34;5970367;23;99297;-79
2021/01/16 02:40:50;;;;;;;;;;;;;;;3.84;41.48;102213.56;5968835;23;101480;-79
2021/01/16 02:43:20;;;;;;;;;;;;;;;3.44;41.88;102220.78;5970962;23;96801;-79
2021/01/16 02:45:54;;;;;;;;;;;;;;;3.75;41.94;102216.91;5971048;23;96701;-78
2021/01/16 02:48:22;;;;;;;;;;;;;;;4.06;41.70;102220.91;5974624;23;101160;-80
2021/01/16 02:50:49;;;;;;;;;;;;;;;3.72;41.70;102214.28;5974125;23;98250;-80
2021/01/16 02:53:18;;;;;;;;;;;;;;;3.57;42.98;102208.78;5974123;23;96754;-79
2021/01/16 02:55:44;;;;;;;;;;;;;;;3.71;42.81;102206.41;5974445;23;96822;-79
2021/01/16 02:58:10;;;;;;;;;;;;;;;3.69;42.88;102210.72;5973922;23;97876;-79
2021/01/16 03:00:36;;;;;;;;;;;;;;;3.89;42.31;102201.44;5974427;23;98758;-79
2021/01/16 03:03:03;;;;;;;;;;;;;;;3.49;43.80;102206.03;5975111;23;96798;-79
2021/01/16 03:05:29;;;;;;;;;;;;;;;3.49;43.85;102206.03;5974195;23;96936;-79
2021/01/16 03:07:55;;;;;;;;;;;;;;;3.93;42.87;102195.41;5970648;23;99038;-78
2021/01/16 03:10:23;;;;;;;;;;;;;;;3.74;43.58;102204.69;5970341;23;100146;-79
2021/01/16 03:12:51;;;;;;;;;;;;;;;3.84;43.17;102213.56;5970664;23;96970;-79
2021/01/16 03:15:18;;;;;;;;;;;;;;;3.77;43.51;102209.97;5969878;23;96802;-79
2021/01/16 03:17:45;;;;;;;;;;;;;;;3.67;43.58;102204.59;5970114;23;98981;-80
2021/01/16 03:20:14;;;;;;;;;;;;;;;3.70;43.59;102204.63;5970878;23;99526;-79
2021/01/16 03:22:39;;;;;;;;;;;;;;;3.92;43.66;102196.28;5972466;23;96696;-79
2021/01/16 03:25:06;;;;;;;;;;;;;;;3.80;43.73;102207.44;5971007;23;96923;-80
2021/01/16 03:27:32;;;;;;;;;;;;;;;3.74;44.60;102207.31;5974865;23;98975;-80
2021/01/16 03:29:57;;;;;;;;;;;;;;;3.18;46.00;102206.38;5979750;23;97754;-79
2021/01/16 03:32:23;;;;;;;;;;;;;;;3.59;44.98;102189.66;5987047;23;96919;-79
2021/01/16 03:34:49;;;;;;;;;;;;;;;3.69;45.12;102195.91;5979165;23;96706;-79
2021/01/16 03:37:17;;;;;;;;;;;;;;;3.63;45.44;102197.53;5978482;23;98032;-79
2021/01/16 03:39:42;;;;;;;;;;;;;;;3.55;45.74;102200.03;5970078;23;99059;-79
2021/01/16 03:42:09;;;;;;;;;;;;;;;3.24;46.42;102196.03;5970586;23;96706;-78
2021/01/16 03:44:35;;;;;;;;;;;;;;;3.47;46.26;102189.47;5969494;23;97285;-80
2021/01/16 03:47:02;;;;;;;;;;;;;;;3.76;45.89;102194.25;5970525;23;99468;-79
2021/01/16 03:49:27;;;;;;;;;;;;;;;3.54;46.29;102191.31;5970904;23;98813;-79
2021/01/16 03:51:53;;;;;;;;;;;;;;;2.92;47.63;102191.97;5969860;23;96967;-79
2021/01/16 03:54:20;;;;;;;;;;;;;;;3.57;47.25;102193.97;5971239;23;96810;-78
2021/01/16 03:56:46;;;;;;;;;;;;;;;3.03;48.12;102187.81;5970691;23;98323;-79
2021/01/16 03:59:11;;;;;;;;;;;;;;;3.47;47.63;102186.88;5969964;23;98758;-80
2021/01/16 04:01:37;;;;;;;;;;;;;;;3.35;48.27;102185.78;5970043;23;96746;-78
2021/01/16 04:04:03;;;;;;;;;;;;;;;3.62;47.25;102175.75;5971270;23;96792;-78
2021/01/16 04:06:29;;;;;;;;;;;;;;;3.49;48.11;102179.91;5969837;23;99327;-79
2021/01/16 04:08:55;;;;;;;;;;;;;;;3.41;47.54;102175.44;5969484;23;98911;-79
2021/01/16 04:11:22;;;;;;;;;;;;;;;3.56;47.23;102179.16;5970625;23;96771;-79
2021/01/16 04:13:48;;;;;;;;;;;;;;;3.61;46.76;102166.16;5971082;23;96874;-80
2021/01/16 04:16:14;;;;;;;;;;;;;;;3.64;46.95;102167.94;5969024;23;99077;-78
2021/01/16 04:18:39;;;;;;;;;;;;;;;3.69;46.99;102167.16;5971350;23;98835;-79
2021/01/16 04:21:05;;;;;;;;;;;;;;;3.73;46.88;102160.25;5970933;23;96710;-79
2021/01/16 04:23:31;;;;;;;;;;;;;;;3.40;47.99;102158.00;5969727;23;96901;-79
2021/01/16 04:25:57;;;;;;;;;;;;;;;3.75;47.13;102156.78;5971150;23;99533;-79
2021/01/16 04:28:24;;;;;;;;;;;;;;;3.58;47.58;102151.31;5970352;23;97502;-79
2021/01/16 04:30:50;;;;;;;;;;;;;;;3.63;47.15;102143.53;5970904;23;96710;-79
2021/01/16 04:33:16;;;;;;;;;;;;;;;3.63;47.25;102145.25;5969727;23;96691;-79
2021/01/16 04:35:42;;;;;;;;;;;;;;;3.59;47.84;102139.13;5970561;23;99061;-79
2021/01/16 04:38:08;;;;;;;;;;;;;;;3.74;47.49;102139.31;5970692;23;99139;-79
2021/01/16 04:40:34;;;;;;;;;;;;;;;3.77;47.34;102148.97;5970481;23;96591;-79
2021/01/16 04:43:01;;;;;;;;;;;;;;;3.75;47.53;102142.81;5970462;23;96891;-79
2021/01/16 04:45:28;;;;;;;;;;;;;;;3.44;48.18;102145.00;5970252;23;99090;-78
2021/01/16 04:47:57;;;;;;;;;;;;;;;3.54;48.89;102139.03;5969595;23;98944;-78
2021/01/16 04:50:26;;;;;;;;;;;;;;;3.77;48.14;102149.84;5971553;23;96805;-79
2021/01/16 04:52:54;;;;;;;;;;;;;;;3.86;47.81;102142.16;5970652;23;96778;-79
2021/01/16 04:55:21;;;;;;;;;;;;;;;3.83;47.89;102141.22;5972216;23;99148;-80
2021/01/16 04:57:47;;;;;;;;;;;;;;;3.72;48.76;102140.19;5975145;23;97115;-80
2021/01/16 05:00:13;;;;;;;;;;;;;;;3.85;47.56;102139.50;5970605;23;96878;-80
2021/01/16 05:02:46;;;;;;;;;;;;;;;3.59;48.26;102132.16;5972573;23;96788;-80
2021/01/16 05:05:12;;;;;;;;;;;;;;;3.65;48.72;102138.34;5975924;23;98654;-80
2021/01/16 05:07:38;;;;;;;;;;;;;;;3.71;48.60;102130.59;5974866;23;98849;-79
2021/01/16 05:10:06;;;;;;;;;;;;;;;3.68;49.00;102127.91;5975327;23;96814;-80
2021/01/16 05:12:53;;;;;;;;;;;;;;;3.73;48.73;102126.25;5976845;23;97018;-81
2021/01/16 05:15:19;;;;;;;;;;;;;;;3.63;48.74;102129.59;5969998;23;99893;-79
2021/01/16 05:17:54;;;;;;;;;;;;;;;3.76;48.12;102131.50;5978947;23;101169;-81
2021/01/16 05:20:21;;;;;;;;;;;;;;;3.85;48.65;102136.88;5980011;23;96711;-80
2021/01/16 05:22:49;;;;;;;;;;;;;;;4.15;47.91;102134.66;5980592;23;96963;-81
2021/01/16 05:25:15;;;;;;;;;;;;;;;3.75;49.20;102127.13;5980597;23;102414;-80
2021/01/16 05:27:47;;;;;;;;;;;;;;;4.11;47.99;102134.63;5980537;23;96734;-81
2021/01/16 05:30:14;;;;;;;;;;;;;;;3.87;49.01;102127.34;5980844;23;97570;-79
2021/01/16 05:32:39;;;;;;;;;;;;;;;3.72;49.15;102116.66;5980532;23;96779;-81
2021/01/16 05:35:16;;;;;;;;;;;;;;;3.32;50.31;102123.00;5981665;23;98071;-78
2021/01/16 05:37:42;;;;;;;;;;;;;;;3.27;50.62;102117.72;5980321;23;102265;-79
2021/01/16 05:40:08;;;;;;;;;;;;;;;3.48;50.03;102110.19;5974191;23;96992;-79
2021/01/16 05:42:34;;;;;;;;;;;;;;;3.49;50.13;102111.06;5973823;23;96986;-80
2021/01/16 05:45:01;;;;;;;;;;;;;;;3.89;48.93;102115.13;5970518;23;98409;-78
2021/01/16 05:47:28;;;;;;;;;;;;;;;3.89;49.06;102107.28;5972114;23;98652;-79
2021/01/16 05:49:53;;;;;;;;;;;;;;;3.94;49.02;102098.66;5973405;23;96924;-80
2021/01/16 05:52:20;;;;;;;;;;;;;;;3.81;48.40;102104.56;5973599;23;96835;-79
2021/01/16 05:54:46;;;;;;;;;;;;;;;3.47;50.07;102105.84;5971251;23;98938;-79
2021/01/16 05:57:16;;;;;;;;;;;;;;;3.65;49.96;102101.75;5971316;23;97050;-80
2021/01/16 05:59:45;;;;;;;;;;;;;;;3.96;48.72;102106.53;5971140;23;96807;-80
2021/01/16 06:02:12;;;;;;;;;;;;;;;3.93;48.52;102094.31;5972243;23;96740;-80
2021/01/16 06:04:45;;;;;;;;;;;;;;;3.80;49.05;102096.72;5971579;23;98845;-81
2021/01/16 06:07:11;;;;;;;;;;;;;;;4.08;48.46;102103.19;5971533;23;98249;-79
2021/01/16 06:09:38;;;;;;;;;;;;;;;4.22;48.02;102094.66;5970833;23;96864;-79
2021/01/16 06:12:06;;;;;;;;;;;;;;;3.31;50.53;102106.47;5971985;23;96898;-79
2021/01/16 06:14:41;;;;;;;;;;;;;;;3.99;48.63;102098.72;5970291;23;98867;-79
2021/01/16 06:17:09;;;;;;;;;;;;;;;4.15;48.86;102095.44;5970732;23;101083;-79
2021/01/16 06:19:36;;;;;;;;;;;;;;;4.09;49.17;102095.34;5970483;23;97005;-78
2021/01/16 06:22:08;;;;;;;;;;;;;;;3.61;49.83;102085.13;5970620;23;96805;-79
2021/01/16 06:24:36;;;;;;;;;;;;;;;3.64;49.82;102085.19;5970404;23;101580;-79
2021/01/16 06:27:04;;;;;;;;;;;;;;;3.59;51.02;102082.50;5970346;23;98335;-79
2021/01/16 06:29:30;;;;;;;;;;;;;;;3.56;50.34;102079.84;5972797;23;96666;-79
2021/01/16 06:32:04;;;;;;;;;;;;;;;4.00;49.00;102090.88;5972652;23;96861;-80
2021/01/16 06:34:31;;;;;;;;;;;;;;;3.71;49.87;102088.75;5972556;23;98953;-78
2021/01/16 06:37:04;;;;;;;;;;;;;;;3.64;49.94;102087.78;5970754;23;99095;-78
2021/01/16 06:39:33;;;;;;;;;;;;;;;3.96;48.22;102088.22;5971041;23;96664;-79
2021/01/16 06:42:04;;;;;;;;;;;;;;;3.35;49.83;102083.88;5970720;23;96933;-79
2021/01/16 06:44:31;;;;;;;;;;;;;;;3.86;49.16;102086.34;5972443;23;99045;-77
2021/01/16 06:46:58;;;;;;;;;;;;;;;3.33;50.25;102082.97;5971240;23;96701;-79
2021/01/16 06:49:25;;;;;;;;;;;;;;;3.54;49.77;102084.16;5972238;23;96787;-79
2021/01/16 06:51:51;;;;;;;;;;;;;;;3.37;50.32;102085.66;5971358;23;96886;-78
2021/01/16 06:54:21;;;;;;;;;;;;;;;4.07;48.80;102076.13;5973307;23;99407;-78
2021/01/16 06:56:48;;;;;;;;;;;;;;;4.02;47.92;102075.22;5975164;23;100143;-77
2021/01/16 06:59:17;;;;;;;;;;;;;;;4.62;46.92;102080.25;5982700;23;96543;-79
2021/01/16 07:01:49;;;;;;;;;;;;;;;3.56;48.96;102074.59;5986331;23;96796;-78
2021/01/16 07:04:17;;;;;;;;;;;;;;;3.70;48.57;102071.31;5987767;23;101409;-77
2021/01/16 07:06:46;;;;;;;;;;;;;;;3.57;49.49;102063.31;5979541;23;100024;-80
2021/01/16 07:09:13;;;;;;;;;;;;;;;2.57;51.84;102073.84;5975299;23;96724;-81
2021/01/16 07:11:43;;;;;;;;;;;;;;;3.67;48.72;102068.66;5977738;23;96785;-79
2021/01/16 07:14:10;;;;;;;;;;;;;;;3.72;48.97;102067.88;5976710;23;101085;-79
2021/01/16 07:16:36;;;;;;;;;;;;;;;2.91;50.97;102073.59;5978115;23;97633;-79
2021/01/16 07:19:03;;;;;;;;;;;;;;;3.47;49.22;102069.25;5980953;23;96923;-79
2021/01/16 07:21:30;;;;;;;;;;;;;;;3.27;49.48;102073.31;5973641;23;97035;-81
2021/01/16 07:23:56;;;;;;;;;;;;;;;3.32;49.68;102076.88;5974962;23;97570;-80
2021/01/16 07:26:23;;;;;;;;;;;;;;;3.85;48.10;102075.00;5975343;23;98271;-79
2021/01/16 07:28:50;;;;;;;;;;;;;;;3.99;47.38;102080.41;5976392;23;96756;-79
2021/01/16 07:31:16;;;;;;;;;;;;;;;3.90;48.44;102085.53;5974737;23;96888;-80
2021/01/16 07:33:44;;;;;;;;;;;;;;;4.03;47.68;102078.72;5973874;23;100800;-80
2021/01/16 07:36:12;;;;;;;;;;;;;;;4.55;46.47;102080.16;5974472;23;99717;-78
2021/01/16 07:38:39;;;;;;;;;;;;;;;4.46;46.40;102080.09;5973914;23;96921;-79
2021/01/16 07:41:08;;;;;;;;;;;;;;;4.28;46.66;102071.16;5975828;23;96904;-79
2021/01/16 07:43:49;;;;;;;;;;;;;;;4.31;47.35;102071.22;5975429;23;98746;-78
2021/01/16 07:46:19;;;;;;;;;;;;;;;4.41;47.28;102070.44;5980376;23;100464;-78
2021/01/16 07:48:50;;;;;;;;;;;;;;;3.92;47.34;102062.91;5980855;23;96850;-78
2021/01/16 07:51:18;;;;;;;;;;;;;;;4.23;47.20;102057.16;5978175;23;96700;-78
2021/01/16 07:53:44;;;;;;;;;;;;;;;4.26;47.11;102058.94;5979081;23;98257;-79
2021/01/16 07:56:19;;;;;;;;;;;;;;;4.36;46.95;102059.06;5981276;23;99972;-78
2021/01/16 07:58:49;;;;;;;;;;;;;;;3.94;47.42;102064.66;5981179;23;97015;-80
2021/01/16 08:01:28;;;;;;;;;;;;;;;3.84;48.38;102064.53;5977166;23;97166;-79
2021/01/16 08:04:06;;;;;;;;;;;;;;;3.89;48.12;102061.09;5975330;23;97372;-79
2021/01/16 08:06:45;;;;;;;;;;;;;;;4.29;47.90;102056.34;5982384;23;99748;-78
2021/01/16 08:09:16;;;;;;;;;;;;;;;3.84;48.60;102062.78;5977604;23;97431;-76
2021/01/16 08:11:48;;;;;;;;;;;;;;;3.52;50.05;102059.75;5975514;23;96813;-83
2021/01/16 08:14:18;;;;;;;;;;;;;;;4.14;48.29;102059.66;5984084;23;99097;-79
2021/01/16 08:16:45;;;;;;;;;;;;;;;3.95;48.52;102052.44;5980767;23;100518;-80
2021/01/16 08:19:17;;;;;;;;;;;;;;;4.05;48.57;102058.69;5985809;23;97076;-83
2021/01/16 08:21:54;;;;;;;;;;;;;;;4.00;49.00;102058.66;5981885;23;96893;-81
2021/01/16 08:24:20;;;;;;;;;;;;;;;3.76;48.94;102058.31;5977964;23;100954;-81
2021/01/16 08:26:54;;;;;;;;;;;;;;;4.60;47.15;102047.94;5974125;23;98882;-80
2021/01/16 08:29:21;;;;;;;;;;;;;;;4.30;47.91;102056.38;5973286;23;96998;-80
2021/01/16 08:31:47;;;;;;;;;;;;;;;4.55;47.60;102048.75;5974181;23;96692;-80
2021/01/16 08:34:33;;;;;;;;;;;;;;;4.71;46.36;102050.69;5975446;23;100719;-80
2021/01/16 08:37:07;;;;;;;;;;;;;;;4.42;47.42;102047.75;5973298;23;97773;-80
2021/01/16 08:39:42;;;;;;;;;;;;;;;4.69;46.64;102041.91;5972811;23;96633;-80
2021/01/16 08:42:09;;;;;;;;;;;;;;;4.71;46.58;102037.59;5972646;23;96761;-79
2021/01/16 08:44:49;;;;;;;;;;;;;;;4.79;46.07;102043.78;5972528;23;99041;-80
2021/01/16 08:47:16;;;;;;;;;;;;;;;4.64;46.81;102026.19;5975737;23;101369;-81
2021/01/16 08:49:42;;;;;;;;;;;;;;;4.84;46.23;102034.22;5972716;23;97121;-79
2021/01/16 08:52:09;;;;;;;;;;;;;;;4.21;46.88;102027.47;5972898;23;96768;-81
2021/01/16 08:54:35;;;;;;;;;;;;;;;4.36;46.61;102027.66;5972911;23;101740;-78
2021/01/16 08:57:13;;;;;;;;;;;;;;;4.71;46.51;102027.09;5972211;23;98885;-79
2021/01/16 08:59:39;;;;;;;;;;;;;;;4.57;46.68;102028.72;5974213;23;96914;-80
2021/01/16 09:02:05;;;;;;;;;;;;;;;4.55;46.45;102027.81;5974138;23;96864;-80
2021/01/16 09:04:32;;;;;;;;;;;;;;;4.73;45.95;102035.84;5975131;23;98965;-82
2021/01/16 09:07:11;;;;;;;;;;;;;;;3.62;48.66;102026.75;5972540;23;97864;-80
2021/01/16 09:09:38;;;;;;;;;;;;;;;3.87;47.88;102028.81;5972112;23;96825;-81
2021/01/16 09:12:05;;;;;;;;;;;;;;;4.05;47.94;102030.78;5977729;23;96689;-80
2021/01/16 09:14:31;;;;;;;;;;;;;;;4.36;46.58;102027.66;5976805;23;97620;-78
2021/01/16 09:16:58;;;;;;;;;;;;;;;4.29;47.09;102030.19;5982225;23;99153;-76
2021/01/16 09:19:28;;;;;;;;;;;;;;;4.47;46.75;102029.47;5978192;23;96823;-76
2021/01/16 09:22:16;;;;;;;;;;;;;;;4.16;47.18;102033.53;5981394;23;97151;-73
2021/01/16 09:24:43;;;;;;;;;;;;;;;3.98;47.91;102035.06;5981896;23;97690;-78
2021/01/16 09:27:20;;;;;;;;;;;;;;;4.60;46.11;102027.00;5979661;23;100699;-79
2021/01/16 09:29:46;;;;;;;;;;;;;;;4.79;46.06;102023.66;5978930;23;96827;-78
2021/01/16 09:32:23;;;;;;;;;;;;;;;5.03;45.50;102028.25;5950286;23;97213;-78
2021/01/16 09:34:49;;;;;;;;;;;;;;;4.67;45.99;102022.69;5980397;23;96816;-80
2021/01/16 09:37:23;;;;;;;;;;;;;;;4.14;46.47;102020.41;5977957;23;99567;-76
2021/01/16 09:40:01;;;;;;;;;;;;;;;4.02;47.96;102015.06;5977809;23;97179;-76
2021/01/16 09:42:27;;;;;;;;;;;;;;;4.33;46.86;102011.91;5977005;23;97610;-76
2021/01/16 09:44:53;;;;;;;;;;;;;;;4.54;45.73;102011.22;5983720;23;99316;-80
2021/01/16 09:47:39;;;;;;;;;;;;;;;4.54;45.97;102005.13;5982425;23;99009;-81
2021/01/16 09:50:10;;;;;;;;;;;;;;;4.43;46.44;102007.66;5984280;23;96886;-80
2021/01/16 09:52:44;;;;;;;;;;;;;;;5.00;44.67;102007.25;5979635;23;96746;-78
2021/01/16 09:55:16;;;;;;;;;;;;;;;4.89;44.76;102005.41;5973495;23;96980;-78
2021/01/16 09:57:42;;;;;;;;;;;;;;;4.78;45.07;102000.13;5968697;23;98909;-77
2021/01/16 10:00:08;;;;;;;;;;;;;;;5.00;45.26;101993.28;5970829;23;97293;-77
2021/01/16 10:02:34;;;;;;;;;;;;;;;4.47;45.72;101996.31;5969571;23;97019;-78
2021/01/16 10:05:01;;;;;;;;;;;;;;;4.69;46.00;101987.81;5971908;23;99293;-78
2021/01/16 10:07:37;;;;;;;;;;;;;;;4.91;44.85;101978.38;5970748;23;99299;-77
2021/01/16 10:10:11;;;;;;;;;;;;;;;4.86;45.16;101987.94;5970020;23;97005;-78
2021/01/16 10:12:41;;;;;;;;;;;;;;;3.93;46.91;102000.16;5970312;23;96797;-79
2021/01/16 10:15:08;;;;;;;;;;;;;;;4.63;45.42;101993.00;5967694;23;99170;-78
2021/01/16 10:17:40;;;;;;;;;;;;;;;5.17;45.61;101978.56;5968026;23;98062;-79
2021/01/16 10:20:08;;;;;;;;;;;;;;;5.17;44.59;101971.56;5968586;23;96934;-79
2021/01/16 10:22:34;;;;;;;;;;;;;;;5.46;43.08;101965.59;5969741;23;96738;-79
2021/01/16 10:25:01;;;;;;;;;;;;;;;5.28;43.50;101961.16;5970862;23;98406;-78
2021/01/16 10:27:47;;;;;;;;;;;;;;;4.86;44.64;101959.13;5969190;23;102339;-80
2021/01/16 10:30:20;;;;;;;;;;;;;;;4.69;44.71;101952.91;5970403;23;97316;-80
2021/01/16 10:32:46;;;;;;;;;;;;;;;4.47;45.43;101961.41;5970029;23;97257;-79
2021/01/16 10:35:19;;;;;;;;;;;;;;;4.37;45.27;101961.38;5970197;23;99374;-79
2021/01/16 10:37:45;;;;;;;;;;;;;;;4.69;45.12;101953.78;5968720;23;99306;-79
2021/01/16 10:40:12;;;;;;;;;;;;;;;4.53;44.28;101940.56;5970342;23;97103;-79
2021/01/16 10:42:42;;;;;;;;;;;;;;;4.70;44.33;101954.66;5973906;23;96827;-80
2021/01/16 10:45:09;;;;;;;;;;;;;;;4.71;44.51;101933.72;5970929;23;99701;-79
2021/01/16 10:47:36;;;;;;;;;;;;;;;5.26;43.18;101946.28;5970633;23;101198;-80
2021/01/16 10:50:05;;;;;;;;;;;;;;;5.73;41.91;101947.34;5971587;23;97169;-78
2021/01/16 10:52:31;;;;;;;;;;;;;;;5.37;42.39;101941.97;5972482;23;97174;-79
2021/01/16 10:54:57;;;;;;;;;;;;;;;5.07;43.42;101940.94;5967988;23;99054;-79
2021/01/16 10:57:23;;;;;;;;;;;;;;;5.27;42.80;101934.94;5967766;23;98816;-78
2021/01/16 10:59:53;;;;;;;;;;;;;;;4.73;44.34;101934.59;5967610;23;96895;-78
2021/01/16 11:02:31;;;;;;;;;;;;;;;4.93;43.84;101932.09;5966428;23;96961;-79
2021/01/16 11:05:09;;;;;;;;;;;;;;;5.22;42.53;101921.81;5969604;23;98190;-78
2021/01/16 11:07:40;;;;;;;;;;;;;;;5.01;43.78;101924.31;5968618;23;101239;-79
2021/01/16 11:10:07;;;;;;;;;;;;;;;4.53;44.10;101922.25;5969748;23;97198;-78
2021/01/16 11:12:33;;;;;;;;;;;;;;;5.40;42.61;101923.63;5969615;23;96804;-78
2021/01/16 11:15:00;;;;;;;;;;;;;;;5.54;41.91;101928.06;5970097;23;99822;-80
2021/01/16 11:17:50;;;;;;;;;;;;;;;5.22;42.94;101917.44;5969040;23;99020;-78
2021/01/16 11:20:19;;;;;;;;;;;;;;;5.15;42.71;101907.78;5948132;23;96952;-78
2021/01/16 11:22:49;;;;;;;;;;;;;;;5.78;42.23;101905.41;5968952;23;97024;-79
2021/01/16 11:25:21;;;;;;;;;;;;;;;5.46;42.51;101905.31;5970771;23;97686;-77
2021/01/16 11:28:04;;;;;;;;;;;;;;;5.41;42.62;101904.41;5969693;23;97627;-78
2021/01/16 11:30:35;;;;;;;;;;;;;;;5.67;42.08;101897.50;5970873;23;96774;-78
2021/01/16 11:33:10;;;;;;;;;;;;;;;5.81;41.77;101894.94;5970555;23;96662;-78
2021/01/16 11:35:39;;;;;;;;;;;;;;;5.68;41.72;101896.66;5972392;23;101278;-82
2021/01/16 11:38:05;;;;;;;;;;;;;;;5.40;42.85;101892.19;5971916;23;97754;-79
2021/01/16 11:40:31;;;;;;;;;;;;;;;5.21;43.19;101883.38;5970522;23;96914;-78
2021/01/16 11:42:58;;;;;;;;;;;;;;;5.06;42.43;101886.78;5972598;23;96802;-79
2021/01/16 11:45:24;;;;;;;;;;;;;;;5.22;42.67;101886.00;5972291;23;100723;-79
2021/01/16 11:47:51;;;;;;;;;;;;;;;5.18;42.98;101883.38;5973479;23;98456;-80
2021/01/16 11:50:17;;;;;;;;;;;;;;;5.63;41.63;101882.66;5973796;23;96755;-78
2021/01/16 11:52:44;;;;;;;;;;;;;;;5.76;41.17;101870.44;5974181;23;96817;-78
2021/01/16 11:55:10;;;;;;;;;;;;;;;5.17;42.17;101869.38;5973724;23;99024;-78
2021/01/16 11:57:36;;;;;;;;;;;;;;;5.63;41.96;101864.31;5971839;23;98811;-77
2021/01/16 12:00:03;;;;;;;;;;;;;;;4.45;43.25;101861.09;5970514;23;97346;-78
2021/01/16 12:02:30;;;;;;;;;;;;;;;4.90;43.31;101856.16;5974148;23;97155;-78
2021/01/16 12:04:56;;;;;;;;;;;;;;;5.34;41.79;101851.09;5973908;23;100710;-79
2021/01/16 12:07:22;;;;;;;;;;;;;;;4.88;42.80;101847.41;5976415;23;98798;-78
2021/01/16 12:09:48;;;;;;;;;;;;;;;5.18;42.81;101844.94;5984588;23;96668;-78
2021/01/16 12:12:14;;;;;;;;;;;;;;;5.09;42.95;101844.88;5981654;23;97226;-80
2021/01/16 12:14:41;;;;;;;;;;;;;;;4.60;43.57;101848.97;5979111;23;98137;-80
2021/01/16 12:17:09;;;;;;;;;;;;;;;4.68;42.65;101835.94;5980583;23;97869;-80
2021/01/16 12:19:36;;;;;;;;;;;;;;;5.26;42.07;101837.09;5985928;23;96686;-80
2021/01/16 12:22:03;;;;;;;;;;;;;;;4.72;43.19;101829.88;5984064;23;97015;-79
2021/01/16 12:24:29;;;;;;;;;;;;;;;5.07;43.07;101822.16;5984733;23;98099;-79
2021/01/16 12:26:58;;;;;;;;;;;;;;;5.38;41.72;101807.44;5985177;23;100167;-78
2021/01/16 12:29:34;;;;;;;;;;;;;;;5.27;41.88;101806.50;5988407;23;97280;-79
2021/01/16 12:32:01;;;;;;;;;;;;;;;4.76;42.89;101819.41;5989951;23;96553;-78
2021/01/16 12:34:27;;;;;;;;;;;;;;;4.81;42.98;101815.06;5986692;23;97900;-79
2021/01/16 12:36:53;;;;;;;;;;;;;;;5.06;42.30;101808.19;5987973;23;97087;-79
2021/01/16 12:39:19;;;;;;;;;;;;;;;4.81;42.98;101806.34;5988622;23;97141;-80
2021/01/16 12:41:45;;;;;;;;;;;;;;;4.45;43.24;101808.75;5982003;23;97188;-79
2021/01/16 12:44:12;;;;;;;;;;;;;;;4.31;42.59;101804.31;5981040;23;98385;-78
2021/01/16 12:46:39;;;;;;;;;;;;;;;4.62;41.77;101807.97;5984006;23;99342;-79
2021/01/16 12:49:09;;;;;;;;;;;;;;;5.25;40.78;101805.66;5972367;23;96863;-79
2021/01/16 12:51:35;;;;;;;;;;;;;;;5.22;41.05;101802.16;5971109;23;96854;-79